Terminal Aerodrome Forecast
Issued by NWS Sioux Falls, SD

Home | Current Version | Previous Version | Graphics & Text | Print | Product List | Glossary Off
Versions: 1 2 3 4 5 6 7 8 9 10 11 12 13 14 15 16 17 18 19

000
FTUS43 KFSD 190534
TAFHON
TAF
KHON 190534Z 1906/2006 36017G25KT P6SM -SN SCT015 OVC045
      TEMPO 1906/1910 3SM -SN BKN015
     FM191000 36017G25KT 5SM -SN OVC025
     FM192100 01014G22KT 3SM -SN OVC015
     FM192300 01013G18KT 2SM -SN OVC015
     FM200100 01013G18KT 1 1/2SM -SN OVC015=

USA.gov is the U.S. government's official web portal to all federal, state and local government web resources and services.